Dubuque, IA

7:50 AM CST on February 22, 2017 (GMT -0600)
City Hall Annex | | Change Station
Active Advisory: Dense Fog Advisory

Elev 640 ft 42.51 °N, 90.67 °W | Updated 4 minutes ago

Mostly Cloudy
Mostly Cloudy
50.5 °F
Feels Like 50.5 °F
N
3.0
Wind Variable Wind from SSE
Gusts 5.0 mph

Today
High -- | Low -- °F
--% Chance of Precip.
Yesterday
High -- | Low -- °F
Precip. -- in
Pressure 29.70 in
Visibility 3.0 miles
Clouds Mostly Cloudy 100 ft
Dew Point 48 °F
Humidity 91%
Rainfall 0.00 in
Snow Depth Not available.
6:48 AM 5:44 PM
Waning Crescent, 17% visible
SPECI KDBQ 221346Z 20011KT 3SM R36/2800VP6000FT BR BKN001 08/08 A2970 RMK AO2 T00780078
Pressure 29.70 in
Visibility 3.0 miles
Clouds Mostly Cloudy 100 ft
Dew Point 48 °F
Humidity 91%
Rainfall 0.00 in
Snow Depth Not available.
6:48 AM 5:44 PM
Waning Crescent, 17% visible
SPECI KDBQ 221346Z 20011KT 3SM R36/2800VP6000FT BR BKN001 08/08 A2970 RMK AO2 T00780078

Get Your Daily Forecast Email!

Thanks for signing up!

Be on the lookout for a verification email in your inbox.

You'll start receiving the daily forecast at 8 AM.

×

10-Day Weather Forecast

Almanac

Astronomy

Feb. 22, 2017 Rise Set
Actual Time
Civil Twilight
Nautical Twilight
Astronomical Twilight
Moon
Length of Visible Light
Length of Day
Tomorrow will be .
, % of the Moon is Illuminated

Today's Extremes

State Highs State Lows

Community

WunderPhotos

Upload Photos

1,962,540 photos uploaded!

WunderBlog® & News

Nearby

Air Quality

  Air Quality AQ Index Pollutant
Not available.

Snow Depth

Station Depth Elevation

Earthquake Activity

City Distance Mag. Time & Date
Minimum magnitude displayed is 2.5.

Coastal Water Temperatures

Place Temperature

Stations

Nearby Weather Stations

Station Location Temp. Windchill Dew Point Humidity Wind Precip. Elev Updated Type
                   

Watches & Warnings

Dense Fog Advisory
Issued: 3:57 AM CST Feb. 22, 2017 – National Weather Service

... Dense fog advisory in effect until 9 am CST this morning...

The National Weather Service in Quad Cities has issued a dense
fog advisory... which is in effect until 9 am CST this morning.

* Visibilities... visibilities will be widespread under 1/4 mile.

* Timing... the fog will remain dense through the early morning...
and begin to lift by mid morning today.

* Impacts... visibility under 1/4 mile at times will be
widespread... with some locations seeing near zero visibility
at times.

Precautionary/preparedness actions...

A dense fog advisory means visibilities will frequently be
reduced to less than one quarter mile. If driving... slow down...
use your headlights... and leave plenty of distance ahead of you.

A dense fog advisory means visibilities will frequently be
reduced to less than one quarter mile. If driving, slow down, use
your headlights, and leave plenty of distance ahead of you.